sensor_id;sensor_type;location;lat;lon;timestamp;P1;durP1;ratioP1;P2;durP2;ratioP2
71902;SDS011;59778;50.310;18.780;2023-03-14T00:06:59;8.27;;;2.60;;
71902;SDS011;59778;50.310;18.780;2023-03-14T00:22:20;6.90;;;2.13;;
71902;SDS011;59778;50.310;18.780;2023-03-14T00:37:42;6.23;;;2.30;;
71902;SDS011;59778;50.310;18.780;2023-03-14T00:53:03;5.50;;;2.13;;
71902;SDS011;59778;50.310;18.780;2023-03-14T01:08:26;9.50;;;2.40;;
71902;SDS011;59778;50.310;18.780;2023-03-14T01:23:48;4.03;;;1.57;;
71902;SDS011;59778;50.310;18.780;2023-03-14T01:39:10;5.57;;;2.10;;
71902;SDS011;59778;50.310;18.780;2023-03-14T01:54:32;7.13;;;2.00;;
71902;SDS011;59778;50.310;18.780;2023-03-14T02:09:57;10.03;;;2.57;;
71902;SDS011;59778;50.310;18.780;2023-03-14T02:25:23;8.97;;;2.00;;
71902;SDS011;59778;50.310;18.780;2023-03-14T02:41:07;7.30;;;2.30;;
71902;SDS011;59778;50.310;18.780;2023-03-14T02:56:28;5.10;;;1.97;;
71902;SDS011;59778;50.310;18.780;2023-03-14T03:11:49;5.63;;;2.70;;
71902;SDS011;59778;50.310;18.780;2023-03-14T03:27:11;7.37;;;2.40;;
71902;SDS011;59778;50.310;18.780;2023-03-14T03:42:32;8.90;;;2.90;;
71902;SDS011;59778;50.310;18.780;2023-03-14T03:57:55;10.43;;;3.47;;
71902;SDS011;59778;50.310;18.780;2023-03-14T04:13:16;24.10;;;6.67;;
71902;SDS011;59778;50.310;18.780;2023-03-14T04:28:38;51.67;;;16.30;;
71902;SDS011;59778;50.310;18.780;2023-03-14T04:43:59;59.70;;;21.10;;
71902;SDS011;59778;50.310;18.780;2023-03-14T04:59:21;78.80;;;24.13;;
71902;SDS011;59778;50.310;18.780;2023-03-14T05:14:42;57.37;;;22.80;;
71902;SDS011;59778;50.310;18.780;2023-03-14T05:30:04;50.63;;;18.30;;
71902;SDS011;59778;50.310;18.780;2023-03-14T05:45:26;30.67;;;9.80;;
71902;SDS011;59778;50.310;18.780;2023-03-14T06:00:48;24.60;;;5.73;;
71902;SDS011;59778;50.310;18.780;2023-03-14T06:16:09;11.47;;;4.10;;
71902;SDS011;59778;50.310;18.780;2023-03-14T06:31:30;10.90;;;3.50;;
71902;SDS011;59778;50.310;18.780;2023-03-14T06:46:52;7.67;;;3.20;;
71902;SDS011;59778;50.310;18.780;2023-03-14T07:02:13;10.67;;;3.13;;
71902;SDS011;59778;50.310;18.780;2023-03-14T07:17:35;10.90;;;3.50;;
71902;SDS011;59778;50.310;18.780;2023-03-14T07:32:56;9.70;;;3.97;;
71902;SDS011;59778;50.310;18.780;2023-03-14T07:48:18;13.63;;;4.30;;
71902;SDS011;59778;50.310;18.780;2023-03-14T08:03:40;14.00;;;4.13;;
71902;SDS011;59778;50.310;18.780;2023-03-14T08:19:01;14.27;;;4.77;;
71902;SDS011;59778;50.310;18.780;2023-03-14T08:34:22;14.87;;;4.37;;
71902;SDS011;59778;50.310;18.780;2023-03-14T08:49:44;14.23;;;3.80;;
71902;SDS011;59778;50.310;18.780;2023-03-14T09:05:05;10.83;;;3.43;;
71902;SDS011;59778;50.310;18.780;2023-03-14T09:20:27;8.40;;;3.00;;
71902;SDS011;59778;50.310;18.780;2023-03-14T09:35:49;11.37;;;3.10;;
71902;SDS011;59778;50.310;18.780;2023-03-14T09:51:14;8.40;;;2.80;;
71902;SDS011;59778;50.310;18.780;2023-03-14T10:06:38;7.23;;;2.67;;
71902;SDS011;59778;50.310;18.780;2023-03-14T10:22:00;9.10;;;3.23;;
71902;SDS011;59778;50.310;18.780;2023-03-14T10:37:24;9.83;;;3.67;;
71902;SDS011;59778;50.310;18.780;2023-03-14T10:52:48;12.67;;;4.73;;
71902;SDS011;59778;50.310;18.780;2023-03-14T11:08:54;12.40;;;3.30;;
71902;SDS011;59778;50.310;18.780;2023-03-14T11:39:45;18.40;;;6.03;;
71902;SDS011;59778;50.310;18.780;2023-03-14T11:55:17;24.37;;;7.87;;
71902;SDS011;59778;50.310;18.780;2023-03-14T12:26:14;11.77;;;4.60;;
71902;SDS011;59778;50.310;18.780;2023-03-14T12:41:40;11.50;;;5.00;;
71902;SDS011;59778;50.310;18.780;2023-03-14T13:12:57;14.60;;;5.63;;
71902;SDS011;59778;50.310;18.780;2023-03-14T13:28:24;12.00;;;4.50;;
71902;SDS011;59778;50.310;18.780;2023-03-14T13:43:46;15.37;;;5.87;;
71902;SDS011;59778;50.310;18.780;2023-03-14T13:59:24;14.23;;;5.03;;
71902;SDS011;59778;50.310;18.780;2023-03-14T14:14:57;12.40;;;5.80;;
71902;SDS011;59778;50.310;18.780;2023-03-14T14:30:27;15.33;;;6.23;;
71902;SDS011;59778;50.310;18.780;2023-03-14T14:45:51;13.93;;;5.73;;
71902;SDS011;59778;50.310;18.780;2023-03-14T15:01:17;13.90;;;5.50;;
71902;SDS011;59778;50.310;18.780;2023-03-14T15:16:43;13.93;;;5.83;;
71902;SDS011;59778;50.310;18.780;2023-03-14T15:32:05;13.57;;;5.40;;
71902;SDS011;59778;50.310;18.780;2023-03-14T15:47:26;12.97;;;4.40;;
71902;SDS011;59778;50.310;18.780;2023-03-14T16:02:48;14.10;;;5.60;;
71902;SDS011;59778;50.310;18.780;2023-03-14T16:18:10;12.87;;;5.77;;
71902;SDS011;59778;50.310;18.780;2023-03-14T16:33:31;16.50;;;5.47;;
71902;SDS011;59778;50.310;18.780;2023-03-14T16:48:54;16.37;;;6.97;;
71902;SDS011;59778;50.310;18.780;2023-03-14T17:04:15;14.27;;;6.23;;
71902;SDS011;59778;50.310;18.780;2023-03-14T17:19:36;21.37;;;8.73;;
71902;SDS011;59778;50.310;18.780;2023-03-14T17:34:58;16.53;;;7.67;;
71902;SDS011;59778;50.310;18.780;2023-03-14T17:50:19;14.27;;;5.90;;
71902;SDS011;59778;50.310;18.780;2023-03-14T18:05:41;16.07;;;6.73;;
71902;SDS011;59778;50.310;18.780;2023-03-14T18:21:03;17.47;;;6.80;;
71902;SDS011;59778;50.310;18.780;2023-03-14T18:36:25;18.53;;;7.67;;
71902;SDS011;59778;50.310;18.780;2023-03-14T18:51:47;24.70;;;9.87;;
71902;SDS011;59778;50.310;18.780;2023-03-14T19:07:08;12.53;;;5.60;;
71902;SDS011;59778;50.310;18.780;2023-03-14T19:22:30;10.60;;;4.20;;
71902;SDS011;59778;50.310;18.780;2023-03-14T19:37:52;10.10;;;4.03;;
71902;SDS011;59778;50.310;18.780;2023-03-14T19:53:13;14.97;;;5.00;;
71902;SDS011;59778;50.310;18.780;2023-03-14T20:08:34;9.93;;;3.03;;
71902;SDS011;59778;50.310;18.780;2023-03-14T20:23:56;12.77;;;3.40;;
71902;SDS011;59778;50.310;18.780;2023-03-14T20:39:20;10.67;;;3.33;;
71902;SDS011;59778;50.310;18.780;2023-03-14T20:54:41;10.27;;;3.90;;
71902;SDS011;59778;50.310;18.780;2023-03-14T21:10:03;12.30;;;4.40;;
71902;SDS011;59778;50.310;18.780;2023-03-14T21:25:24;12.90;;;4.70;;
71902;SDS011;59778;50.310;18.780;2023-03-14T21:40:46;10.57;;;3.70;;
71902;SDS011;59778;50.310;18.780;2023-03-14T21:56:10;10.63;;;4.00;;
71902;SDS011;59778;50.310;18.780;2023-03-14T22:11:31;13.20;;;5.00;;
71902;SDS011;59778;50.310;18.780;2023-03-14T22:26:54;7.37;;;3.20;;
71902;SDS011;59778;50.310;18.780;2023-03-14T22:42:15;6.20;;;1.87;;
71902;SDS011;59778;50.310;18.780;2023-03-14T22:57:36;5.47;;;2.13;;
71902;SDS011;59778;50.310;18.780;2023-03-14T23:12:58;3.63;;;1.20;;
71902;SDS011;59778;50.310;18.780;2023-03-14T23:28:20;4.00;;;2.00;;
71902;SDS011;59778;50.310;18.780;2023-03-14T23:43:43;9.13;;;3.90;;
71902;SDS011;59778;50.310;18.780;2023-03-14T23:59:06;6.47;;;2.63;;
